createdAt,value
2022-09-03T00:01:45.705Z,96071.38
2022-09-03T00:07:00.704Z,96103.31
2022-09-03T00:12:10.443Z,96108.88
2022-09-03T00:17:25.713Z,96110.41
2022-09-03T00:22:36.155Z,96113.06
2022-09-03T00:27:41.835Z,96125.34
2022-09-03T00:33:09.854Z,96122.00
2022-09-03T00:38:12.179Z,96106.09
2022-09-03T00:43:46.388Z,96109.72
2022-09-03T00:49:22.617Z,96131.59
2022-09-03T00:54:36.483Z,96134.81
2022-09-03T01:00:00.761Z,96130.34
2022-09-03T01:05:12.092Z,96135.13
2022-09-03T01:10:28.251Z,96127.25
2022-09-03T01:15:52.556Z,96120.53
2022-09-03T01:21:13.856Z,96139.94
2022-09-03T01:26:25.041Z,96123.09
2022-09-03T01:31:58.198Z,96134.63
2022-09-03T01:37:32.742Z,96149.84
2022-09-03T01:42:56.390Z,96152.63
2022-09-03T01:48:17.148Z,96140.50
2022-09-03T01:53:41.229Z,96152.97
2022-09-03T01:58:47.989Z,96158.66
2022-09-03T02:03:51.055Z,96122.03
2022-09-03T02:08:54.065Z,96157.97
2022-09-03T02:14:00.110Z,96150.47
2022-09-03T02:19:06.268Z,96145.59
2022-09-03T02:24:09.781Z,96158.00
2022-09-03T02:29:15.662Z,96157.31
2022-09-03T02:34:17.910Z,96162.75
2022-09-03T02:39:20.267Z,96143.19
2022-09-03T02:44:30.942Z,96154.75
2022-09-03T02:49:33.867Z,96172.75
2022-09-03T02:54:40.109Z,96170.00
2022-09-03T02:59:44.769Z,96157.66
2022-09-03T03:04:47.086Z,96165.94
2022-09-03T03:09:49.441Z,96168.31
2022-09-03T03:14:51.831Z,96166.75
2022-09-03T03:19:55.009Z,96157.63
2022-09-03T03:24:58.103Z,96147.63
2022-09-03T03:30:00.184Z,96153.88
2022-09-03T03:35:02.417Z,96162.97
2022-09-03T03:40:05.096Z,96152.31
2022-09-03T03:45:08.091Z,96167.13
2022-09-03T03:50:10.662Z,96156.09
2022-09-03T03:55:12.917Z,96157.00
2022-09-03T04:00:18.299Z,96158.59
2022-09-03T04:05:23.240Z,96165.16
2022-09-03T04:10:26.345Z,96172.00
2022-09-03T04:15:28.963Z,96158.72
2022-09-03T04:20:31.169Z,96181.22
2022-09-03T04:25:33.826Z,96191.16
2022-09-03T04:30:37.462Z,96196.19
2022-09-03T04:35:41.374Z,96205.78
2022-09-03T04:40:44.171Z,96185.03
2022-09-03T04:45:46.468Z,96214.38
2022-09-03T04:50:48.764Z,96204.84
2022-09-03T04:55:51.276Z,96206.06
2022-09-03T05:00:53.518Z,96223.25
2022-09-03T05:05:56.289Z,96234.38
2022-09-03T05:11:01.903Z,96240.91
2022-09-03T05:16:10.384Z,96237.00
2022-09-03T05:21:19.098Z,96255.19
2022-09-03T05:26:25.671Z,96244.72
2022-09-03T05:31:32.050Z,96246.94
2022-09-03T05:36:37.427Z,96222.09
2022-09-03T05:41:40.196Z,96254.41
2022-09-03T05:46:42.453Z,96252.97
2022-09-03T05:51:44.886Z,96264.91
2022-09-03T05:56:47.181Z,96259.09
2022-09-03T06:01:56.784Z,96256.41
2022-09-03T06:07:03.066Z,96241.59
2022-09-03T06:12:05.420Z,96282.50
2022-09-03T06:17:11.452Z,96280.31
2022-09-03T06:22:13.806Z,96292.19
2022-09-03T06:27:15.965Z,96282.09
2022-09-03T06:32:23.470Z,96288.94
2022-09-03T06:37:25.698Z,96288.75
2022-09-03T07:02:31.498Z,96322.06
2022-09-03T07:07:33.876Z,96331.91
2022-09-03T07:12:37.844Z,96334.44
2022-09-03T07:17:40.068Z,96336.34
2022-09-03T07:22:42.113Z,96354.41
2022-09-03T07:27:44.366Z,96356.00
2022-09-03T07:32:47.406Z,96351.00
2022-09-03T07:37:49.573Z,96354.78
2022-09-03T07:43:04.566Z,96347.13
2022-09-03T07:48:06.998Z,96345.25
2022-09-03T07:53:09.349Z,96356.31
2022-09-03T07:58:12.825Z,96366.53
2022-09-03T08:03:14.917Z,96347.69
2022-09-03T08:08:18.209Z,96352.81
2022-09-03T08:13:22.138Z,96345.53
2022-09-03T08:18:24.409Z,96348.84
2022-09-03T08:23:26.787Z,96333.59
2022-09-03T08:28:30.307Z,96355.75
2022-09-03T08:33:39.009Z,96333.13
2022-09-03T08:38:43.797Z,96324.25
2022-09-03T08:44:05.435Z,96337.34
2022-09-03T08:49:11.786Z,96325.06
2022-09-03T08:54:14.998Z,96332.31
2022-09-03T08:59:17.310Z,96341.38
2022-09-03T09:04:42.295Z,96349.69
2022-09-03T09:09:49.291Z,96357.19
2022-09-03T09:15:21.230Z,96346.63
2022-09-03T09:20:32.333Z,96370.75
2022-09-03T09:25:42.719Z,96351.25
2022-09-03T09:30:47.993Z,96347.63
2022-09-03T09:35:50.609Z,96357.50
2022-09-03T09:40:52.829Z,96362.94
2022-09-03T09:45:55.855Z,96348.94
2022-09-03T09:51:31.497Z,96331.13
2022-09-03T09:56:33.817Z,96334.53
2022-09-03T10:01:39.488Z,96371.59
2022-09-03T10:06:57.467Z,96363.22
2022-09-03T10:12:25.106Z,96376.97
2022-09-03T10:17:46.259Z,96380.03
2022-09-03T10:23:16.525Z,96358.47
2022-09-03T10:28:18.906Z,96344.75
2022-09-03T10:33:39.681Z,96370.63
2022-09-03T10:38:44.079Z,96386.69
2022-09-03T10:44:00.120Z,96389.25
2022-09-03T10:49:14.480Z,96400.22
2022-09-03T10:54:24.543Z,96389.94
2022-09-03T10:59:59.084Z,96398.25
2022-09-03T11:05:08.578Z,96376.16
2022-09-03T11:10:17.548Z,96378.34
2022-09-03T11:15:35.134Z,96391.31
2022-09-03T11:20:39.133Z,96378.00
2022-09-03T11:25:53.946Z,96379.84
2022-09-03T11:31:05.409Z,96396.84
2022-09-03T11:36:07.803Z,96369.47
2022-09-03T11:41:35.986Z,96405.81
2022-09-03T11:46:41.754Z,96407.19
2022-09-03T11:51:45.320Z,96414.81
2022-09-03T11:56:50.107Z,96398.78
2022-09-03T12:01:53.909Z,96407.22
2022-09-03T12:07:09.246Z,96415.44
2022-09-03T12:12:24.082Z,96414.03
2022-09-03T12:17:49.965Z,96404.69
2022-09-03T12:27:54.541Z,96393.50
2022-09-03T12:33:07.869Z,96415.53
2022-09-03T12:39:07.703Z,96415.22
2022-09-03T12:44:01.289Z,96403.19
2022-09-03T12:54:30.077Z,96421.06
2022-09-03T12:59:35.536Z,96402.47
2022-09-03T13:04:40.776Z,96424.19
2022-09-03T13:09:43.396Z,96420.81
2022-09-03T13:14:52.661Z,96405.41
2022-09-03T13:20:17.033Z,96429.31
2022-09-03T13:25:38.851Z,96414.66
2022-09-03T13:30:54.781Z,96418.22
2022-09-03T13:36:05.542Z,96402.03
2022-09-03T13:41:37.653Z,96411.25
2022-09-03T13:46:54.104Z,96407.16
2022-09-03T13:52:04.348Z,96424.28
2022-09-03T13:57:22.588Z,96425.13
2022-09-03T14:02:52.576Z,96418.56
2022-09-03T14:08:08.605Z,96406.56
2022-09-03T14:13:29.990Z,96407.25
2022-09-03T14:18:32.320Z,96421.41
2022-09-03T14:23:55.428Z,96430.19
2022-09-03T14:29:07.104Z,96430.75
2022-09-03T14:34:42.153Z,96406.72
2022-09-03T14:39:55.985Z,96391.91
2022-09-03T14:45:30.905Z,96438.56
2022-09-03T14:50:45.587Z,96438.31
2022-09-03T14:56:15.680Z,96448.66
2022-09-03T15:01:37.596Z,96463.13
2022-09-03T15:07:08.016Z,96454.50
2022-09-03T15:12:13.396Z,96458.69
2022-09-03T15:17:36.875Z,96448.53
2022-09-03T15:23:23.585Z,96469.63
2022-09-03T15:28:43.985Z,96474.41
2022-09-03T15:34:03.438Z,96442.75
2022-09-03T15:39:18.310Z,96470.72
2022-09-03T15:44:20.876Z,96469.03
2022-09-03T15:49:47.674Z,96484.56
2022-09-03T15:55:08.806Z,96474.00
2022-09-03T16:00:21.376Z,96460.56
2022-09-03T16:05:39.658Z,96478.72
2022-09-03T16:11:13.826Z,96480.06
2022-09-03T16:16:42.977Z,96485.31
2022-09-03T16:22:00.768Z,96462.78
2022-09-03T16:27:11.698Z,96476.91
2022-09-03T16:32:42.157Z,96463.47
2022-09-03T16:38:00.654Z,96464.88
2022-09-03T16:43:40.212Z,96492.88
2022-09-03T16:48:55.105Z,96488.81
2022-09-03T16:54:14.056Z,96467.63
2022-09-03T16:59:29.230Z,96468.59
2022-09-03T17:05:00.549Z,96493.03
2022-09-03T17:10:11.691Z,96506.44
2022-09-03T17:15:32.533Z,96512.59
2022-09-03T17:20:49.591Z,96511.41
2022-09-03T17:26:06.196Z,96507.72
2022-09-03T17:31:10.277Z,96533.41
2022-09-03T17:36:18.864Z,96543.31
2022-09-03T17:41:48.677Z,96520.91
2022-09-03T17:46:50.941Z,96546.53
2022-09-03T17:52:05.618Z,96553.19
2022-09-03T17:57:32.323Z,96558.78
2022-09-03T18:02:44.051Z,96569.66
2022-09-03T18:08:04.819Z,96567.44
2022-09-03T18:13:25.348Z,96563.25
2022-09-03T18:18:33.272Z,96574.41
2022-09-03T18:24:11.214Z,96565.94
2022-09-03T18:29:58.677Z,96564.22
2022-09-03T18:35:19.528Z,96557.28
2022-09-03T18:40:47.458Z,96571.56
2022-09-03T18:47:22.609Z,96556.59
2022-09-03T18:52:30.754Z,96580.31
2022-09-03T18:58:17.488Z,96579.84
2022-09-03T19:03:59.800Z,96576.00
2022-09-03T19:09:20.498Z,96596.63
2022-09-03T19:15:27.918Z,96582.50
2022-09-03T19:20:52.280Z,96579.00
2022-09-03T19:26:18.929Z,96594.16
2022-09-03T19:32:03.645Z,96600.44
2022-09-03T19:37:44.333Z,96616.72
2022-09-03T19:43:44.060Z,96612.97
2022-09-03T19:49:34.968Z,96605.28
2022-09-03T19:54:56.177Z,96601.00
2022-09-03T20:00:18.279Z,96604.44
2022-09-03T20:05:51.548Z,96600.75
2022-09-03T20:10:57.382Z,96604.25
2022-09-03T20:16:16.868Z,96592.13
2022-09-03T20:21:40.326Z,96621.13
2022-09-03T20:26:52.120Z,96632.19
2022-09-03T20:32:16.174Z,96620.63
2022-09-03T20:37:28.843Z,96636.91
2022-09-03T20:42:54.656Z,96639.56
2022-09-03T20:48:00.347Z,96636.00
2022-09-03T20:53:44.737Z,96647.56
2022-09-03T20:59:01.749Z,96648.38
2022-09-03T21:04:07.021Z,96656.19
2022-09-03T21:09:30.409Z,96645.88
2022-09-03T21:14:44.250Z,96646.47
2022-09-03T21:20:23.727Z,96649.38
2022-09-03T21:25:37.322Z,96645.44
2022-09-03T21:30:46.640Z,96629.03
2022-09-03T21:36:01.736Z,96638.66
2022-09-03T21:41:24.078Z,96645.63
2022-09-03T21:46:33.384Z,96640.38
2022-09-03T21:51:50.685Z,96643.97
2022-09-03T21:57:14.261Z,96639.78
2022-09-03T22:02:30.367Z,96632.53
2022-09-03T22:07:53.164Z,96628.94
2022-09-03T22:13:15.049Z,96609.22
2022-09-03T22:18:31.344Z,96632.19
2022-09-03T22:24:07.597Z,96613.00
2022-09-03T22:29:18.313Z,96599.66
2022-09-03T22:34:40.668Z,96605.25
2022-09-03T22:39:47.323Z,96606.75
2022-09-03T22:45:13.255Z,96608.63
2022-09-03T22:50:31.904Z,96606.44
2022-09-03T22:55:38.513Z,96603.78
2022-09-03T23:00:45.905Z,96587.50
2022-09-03T23:06:10.426Z,96580.19
2022-09-03T23:11:25.731Z,96592.16
2022-09-03T23:16:34.787Z,96580.19
2022-09-03T23:21:43.439Z,96606.66
2022-09-03T23:26:52.848Z,96594.22
2022-09-03T23:31:57.809Z,96610.19
2022-09-03T23:43:00.984Z,96607.31
2022-09-03T23:48:37.831Z,96599.75
2022-09-03T23:54:20.244Z,96620.53
